Time;durP1;ratioP1;P1;durP2;ratioP2;P2;SDS_P1;SDS_P2;PMS_P1;PMS_P2;Temp;Humidity;BMP_temperature;BMP_pressure;BME280_temperature;BME280_humidity;BME280_pressure;Samples;Min_cycle;Max_cycle;Signal;HPM_P1;HPM_P2
2023/02/19 00:01:19;;;;;;;26.38;6.75;;;;;;;2.59;100.00;100894.38;4979774;28;20709;-76
2023/02/19 00:03:53;;;;;;;23.00;5.95;;;;;;;2.57;100.00;100893.66;5033272;28;20040;-74
2023/02/19 00:06:20;;;;;;;21.10;5.22;;;;;;;2.56;100.00;100900.72;4999819;28;20405;-74
2023/02/19 00:08:46;;;;;;;19.77;6.53;;;;;;;2.58;100.00;100898.00;5020365;28;20033;-74
2023/02/19 00:11:14;;;;;;;23.45;6.25;;;;;;;2.58;100.00;100892.72;4999719;28;20025;-77
2023/02/19 00:13:42;;;;;;;32.20;7.63;;;;;;;2.65;100.00;100900.09;5018018;28;20037;-74
2023/02/19 00:16:27;;;;;;;24.98;7.43;;;;;;;2.61;100.00;100898.59;5033003;28;20037;-77
2023/02/19 00:18:55;;;;;;;22.45;6.72;;;;;;;2.61;100.00;100903.03;5034807;28;20047;-73
2023/02/19 00:21:20;;;;;;;18.80;6.00;;;;;;;2.58;100.00;100898.84;5014479;28;20034;-73
2023/02/19 00:23:56;;;;;;;17.58;6.10;;;;;;;2.60;100.00;100907.47;5022371;28;20129;-75
2023/02/19 00:26:22;;;;;;;22.77;6.50;;;;;;;2.64;100.00;100908.09;4994824;28;20042;-77
2023/02/19 00:28:49;;;;;;;17.17;5.90;;;;;;;2.66;100.00;100911.47;5033517;28;20033;-75
2023/02/19 00:31:19;;;;;;;22.63;6.45;;;;;;;2.63;100.00;100911.69;5026606;28;20061;-73
2023/02/19 00:33:46;;;;;;;23.63;6.90;;;;;;;2.61;100.00;100903.88;4999988;28;20048;-73
2023/02/19 00:36:13;;;;;;;20.00;6.00;;;;;;;2.61;100.00;100909.16;5014444;28;20041;-77
2023/02/19 00:38:39;;;;;;;21.00;6.63;;;;;;;2.64;100.00;100913.34;5057549;22;20041;-77
2023/02/19 00:41:18;;;;;;;19.40;6.20;;;;;;;2.64;100.00;100913.34;5032322;28;20067;-76
2023/02/19 00:43:57;;;;;;;25.20;7.18;;;;;;;2.64;100.00;100908.94;5016771;28;20128;-76
2023/02/19 00:46:27;;;;;;;28.70;7.63;;;;;;;2.62;100.00;100907.34;5011706;28;20041;-77
2023/02/19 00:48:53;;;;;;;19.88;7.50;;;;;;;2.61;100.00;100914.41;5033968;28;20033;-76
2023/02/19 00:51:21;;;;;;;20.67;7.55;;;;;;;2.65;100.00;100912.44;5016628;28;20022;-76
2023/02/19 00:53:47;;;;;;;20.40;6.45;;;;;;;2.59;100.00;100908.41;4999582;28;20460;-79
2023/02/19 00:56:12;;;;;;;20.77;6.13;;;;;;;2.59;100.00;100910.22;5014404;28;20047;-76
2023/02/19 00:58:38;;;;;;;19.73;7.03;;;;;;;2.58;100.00;100911.16;5032585;28;20033;-76
2023/02/19 01:01:05;;;;;;;19.35;7.97;;;;;;;2.62;100.00;100921.41;5015739;28;20055;-76
2023/02/19 01:03:31;;;;;;;26.50;7.25;;;;;;;2.61;100.00;100924.13;5014321;28;20305;-76
2023/02/19 01:05:56;;;;;;;20.75;6.95;;;;;;;2.63;100.00;100912.53;4997421;28;20068;-79
2023/02/19 01:08:22;;;;;;;23.65;8.23;;;;;;;2.72;100.00;100913.69;5002563;28;20037;-76
2023/02/19 01:10:47;;;;;;;25.77;7.43;;;;;;;2.69;100.00;100921.78;4989390;28;20025;-77
2023/02/19 01:13:13;;;;;;;33.08;8.60;;;;;;;2.67;100.00;100919.28;5013854;28;20116;-77
2023/02/19 01:15:38;;;;;;;23.50;8.18;;;;;;;2.69;100.00;100916.50;4998777;28;20049;-75
2023/02/19 01:18:04;;;;;;;16.73;6.60;;;;;;;2.67;100.00;100921.03;5032807;28;20040;-75
2023/02/19 01:20:29;;;;;;;21.77;7.20;;;;;;;2.66;100.00;100914.09;5003879;28;20034;-76
2023/02/19 01:22:54;;;;;;;20.03;7.67;;;;;;;2.78;100.00;100925.59;5033383;28;20060;-76
2023/02/19 01:25:20;;;;;;;14.87;7.60;;;;;;;2.70;100.00;100913.78;4998966;28;20041;-76
2023/02/19 01:27:45;;;;;;;22.75;7.65;;;;;;;2.71;100.00;100925.16;5014486;28;20360;-76
2023/02/19 01:30:11;;;;;;;22.20;8.03;;;;;;;2.78;100.00;100925.59;5014075;28;20524;-77
2023/02/19 01:32:37;;;;;;;18.33;7.38;;;;;;;2.72;100.00;100926.88;4987894;28;20371;-78
2023/02/19 01:35:03;;;;;;;20.92;7.13;;;;;;;2.70;100.00;100920.84;5015123;28;20043;-76
2023/02/19 01:37:29;;;;;;;33.75;9.45;;;;;;;2.68;100.00;100920.13;5013698;28;20064;-75
2023/02/19 01:39:55;;;;;;;25.50;6.97;;;;;;;2.68;100.00;100914.84;4982495;28;20025;-76
2023/02/19 01:42:20;;;;;;;23.27;7.03;;;;;;;2.75;100.00;100918.72;5018029;28;20084;-77
2023/02/19 01:44:45;;;;;;;19.65;6.55;;;;;;;2.76;100.00;100920.41;4989139;28;20041;-76
2023/02/19 01:47:12;;;;;;;22.10;7.07;;;;;;;2.73;100.00;100924.09;5013413;28;20228;-76
2023/02/19 01:49:49;;;;;;;33.92;8.18;;;;;;;2.64;100.00;100921.28;4997997;28;20046;-77
2023/02/19 01:52:21;;;;;;;57.58;8.60;;;;;;;2.52;100.00;100901.88;4999968;28;20040;-76
2023/02/19 01:54:48;;;;;;;30.17;9.00;;;;;;;2.58;100.00;100909.38;5013203;28;20048;-77
2023/02/19 01:57:22;;;;;;;25.52;8.15;;;;;;;2.60;100.00;100920.66;4993908;28;20041;-77
2023/02/19 01:59:52;;;;;;;39.67;7.68;;;;;;;2.59;100.00;100926.88;5014782;28;20042;-75
2023/02/19 02:02:17;;;;;;;22.52;7.32;;;;;;;2.60;100.00;100930.34;4997670;28;20037;-76
2023/02/19 02:04:43;;;;;;;20.45;8.77;;;;;;;2.64;100.00;100923.91;4982389;28;20025;-76
2023/02/19 02:10:18;;;;;;;25.63;8.85;;;;;;;2.65;100.00;100937.00;5013444;28;20041;-77
2023/02/19 02:12:38;;;;;;;22.02;7.60;;;;;;;2.64;100.00;100930.00;5018067;28;20173;-77
2023/02/19 02:15:04;;;;;;;23.10;8.77;;;;;;;2.56;100.00;100920.97;5004310;28;20486;-76
2023/02/19 02:17:36;;;;;;;28.55;7.65;;;;;;;2.57;100.00;100920.00;4981028;28;20034;-76
2023/02/19 02:20:13;;;;;;;22.02;7.25;;;;;;;2.51;100.00;100918.66;5017926;28;20033;-76
2023/02/19 02:22:50;;;;;;;26.17;7.78;;;;;;;2.46;100.00;100905.78;5001015;28;20406;-77
2023/02/19 02:25:57;;;;;;;23.10;6.13;;;;;;;2.45;100.00;100892.72;4992613;28;20034;-78
2023/02/19 02:29:04;;;;;;;20.15;6.90;;;;;;;2.47;100.00;100894.28;5013424;28;20030;-77
2023/02/19 02:32:05;;;;;;;19.65;5.32;;;;;;;2.44;100.00;100886.63;5006702;28;20048;-76
2023/02/19 02:34:40;;;;;;;18.40;4.30;;;;;;;2.42;100.00;100877.97;4894803;29;20046;-76
2023/02/19 02:37:08;;;;;;;14.43;4.57;;;;;;;2.42;100.00;100875.31;4892020;29;20075;-77
2023/02/19 02:39:36;;;;;;;13.90;3.80;;;;;;;2.36;100.00;100867.84;4907772;29;20184;-76
2023/02/19 02:47:49;;;;;;;22.02;4.22;;;;;;;2.27;100.00;100836.84;4909956;29;20607;-78
2023/02/19 02:50:22;;;;;;;17.85;3.05;;;;;;;2.22;100.00;100825.81;4919940;29;20059;-76
2023/02/19 02:55:42;;;;;;;15.95;4.40;;;;;;;2.15;100.00;100825.38;4922637;29;20040;-75
2023/02/19 02:58:10;;;;;;;13.25;2.70;;;;;;;2.11;100.00;100827.41;4909690;29;20135;-76
2023/02/19 03:03:26;;;;;;;7.88;3.60;;;;;;;1.98;100.00;100817.81;4909611;29;20052;-76
2023/02/19 03:05:57;;;;;;;13.00;3.92;;;;;;;1.87;100.00;100822.03;4898516;29;20044;-78
2023/02/19 03:08:29;;;;;;;21.75;3.63;;;;;;;1.89;100.00;100824.53;4899966;29;20047;-76
2023/02/19 03:19:17;;;;;;;17.67;3.97;;;;;;;1.81;100.00;100824.25;5012038;28;20509;-79
2023/02/19 03:19:32;;;;;;;13.35;3.60;;;;;;;1.77;100.00;100838.53;5007688;28;20045;-76
2023/02/19 03:22:02;;;;;;;12.05;3.15;;;;;;;1.74;100.00;100844.88;5002340;28;20037;-76
2023/02/19 03:27:20;;;;;;;13.98;3.38;;;;;;;1.66;100.00;100853.28;5007798;28;20041;-77
2023/02/19 03:29:53;;;;;;;10.60;3.78;;;;;;;1.64;100.00;100852.53;5013419;28;20033;-76
2023/02/19 03:32:32;;;;;;;14.55;3.50;;;;;;;1.57;100.00;100853.91;4997271;28;20113;-76
2023/02/19 03:35:08;;;;;;;13.15;4.70;;;;;;;1.57;100.00;100864.41;5008487;28;20037;-75
2023/02/19 03:37:56;;;;;;;10.60;3.85;;;;;;;1.51;100.00;100859.56;5014408;28;20042;-77
2023/02/19 03:40:26;;;;;;;20.20;4.50;;;;;;;1.48;100.00;100865.03;4982846;28;20091;-78
2023/02/19 03:43:42;;;;;;;13.73;4.20;;;;;;;1.55;100.00;100887.38;5019240;28;20029;-78
2023/02/19 03:46:11;;;;;;;17.27;3.90;;;;;;;1.49;100.00;100887.75;4906069;29;20146;-76
2023/02/19 03:49:01;;;;;;;25.23;5.25;;;;;;;1.43;100.00;100890.81;4901088;29;20027;-78
2023/02/19 03:51:40;;;;;;;26.63;3.78;;;;;;;1.45;100.00;100886.25;4941655;28;20181;-77
2023/02/19 03:54:17;;;;;;;17.60;3.55;;;;;;;1.47;100.00;100887.00;4952174;28;20041;-78
2023/02/19 03:56:49;;;;;;;13.32;4.30;;;;;;;1.44;100.00;100897.75;4946745;28;20075;-75
2023/02/19 03:59:23;;;;;;;22.05;4.50;;;;;;;1.43;100.00;100898.69;4934687;28;20051;-76
2023/02/19 04:01:54;;;;;;;20.67;4.43;;;;;;;1.39;100.00;100903.31;4931333;29;20040;-76
2023/02/19 04:04:22;;;;;;;13.80;3.28;;;;;;;1.33;100.00;100903.69;4929785;29;20442;-75
2023/02/19 04:06:56;;;;;;;9.95;3.35;;;;;;;1.30;100.00;100903.06;4956576;28;20038;-76
2023/02/19 04:09:27;;;;;;;24.88;4.45;;;;;;;1.21;100.00;100905.31;4933764;28;20421;-76
2023/02/19 04:12:01;;;;;;;16.88;3.92;;;;;;;1.29;100.00;100912.75;4945270;28;20027;-77
2023/02/19 04:14:45;;;;;;;19.88;4.57;;;;;;;1.38;100.00;100929.69;4944975;28;20099;-76
2023/02/19 04:17:21;;;;;;;10.20;3.33;;;;;;;1.35;100.00;100922.00;4924462;29;20040;-76
2023/02/19 04:19:49;;;;;;;19.33;4.28;;;;;;;1.36;100.00;100918.44;4937352;29;20154;-77
2023/02/19 04:22:16;;;;;;;13.15;4.60;;;;;;;1.27;100.00;100925.97;4980976;28;20033;-76
2023/02/19 04:24:46;;;;;;;14.70;5.18;;;;;;;1.25;100.00;100934.91;4980367;28;20559;-77
2023/02/19 04:27:12;;;;;;;21.40;5.15;;;;;;;1.21;100.00;100938.69;5010879;28;20103;-77
2023/02/19 04:29:38;;;;;;;10.07;3.58;;;;;;;1.19;100.00;100936.13;4996331;28;20049;-77
2023/02/19 04:32:04;;;;;;;14.65;3.75;;;;;;;1.17;100.00;100940.66;5012203;28;20033;-76
2023/02/19 04:34:29;;;;;;;13.05;3.38;;;;;;;1.16;100.00;100944.22;4979395;28;20108;-78
2023/02/19 04:36:54;;;;;;;14.83;3.03;;;;;;;1.18;100.00;100946.78;5036553;28;20036;-78
2023/02/19 04:39:20;;;;;;;12.10;3.77;;;;;;;1.15;100.00;100945.19;4999193;28;20366;-76
2023/02/19 04:41:45;;;;;;;12.80;3.55;;;;;;;1.10;100.00;100957.78;5013706;28;20379;-76
2023/02/19 04:44:11;;;;;;;11.70;2.70;;;;;;;1.09;100.00;100956.06;5032881;28;20489;-77
2023/02/19 04:46:36;;;;;;;13.00;3.03;;;;;;;1.02;100.00;100946.88;4982599;28;20292;-75
2023/02/19 04:49:02;;;;;;;14.77;2.63;;;;;;;1.03;100.00;100954.69;4999652;28;20283;-76
2023/02/19 04:51:27;;;;;;;18.05;3.17;;;;;;;1.11;100.00;100963.88;5032177;28;20025;-77
2023/02/19 04:53:54;;;;;;;11.07;2.80;;;;;;;1.02;100.00;100954.78;5004310;28;20402;-78
2023/02/19 04:56:20;;;;;;;14.48;2.55;;;;;;;1.04;100.00;100955.53;4983503;28;20038;-77
2023/02/19 04:58:45;;;;;;;14.05;2.60;;;;;;;1.10;100.00;100964.81;5029508;28;20049;-77
2023/02/19 05:01:11;;;;;;;27.13;3.35;;;;;;;1.08;100.00;100961.41;5014264;28;20039;-76
2023/02/19 05:03:36;;;;;;;8.93;2.13;;;;;;;1.05;100.00;100962.47;5014736;28;20382;-76
2023/02/19 05:06:08;;;;;;;20.80;3.03;;;;;;;0.98;100.00;100958.53;4998578;28;20041;-77
2023/02/19 05:08:34;;;;;;;10.57;2.40;;;;;;;0.93;100.00;100965.84;5038803;28;20428;-78
2023/02/19 05:11:02;;;;;;;21.33;2.25;;;;;;;0.93;100.00;100960.59;5015210;28;20483;-77
2023/02/19 05:13:28;;;;;;;15.98;2.63;;;;;;;0.92;100.00;100967.66;5001602;28;20132;-76
2023/02/19 05:16:00;;;;;;;10.27;2.65;;;;;;;0.98;100.00;100972.53;5034008;28;20537;-76
2023/02/19 05:18:27;;;;;;;10.45;2.13;;;;;;;0.92;100.00;100966.81;5001699;28;20041;-77
2023/02/19 05:20:53;;;;;;;17.23;3.60;;;;;;;0.94;100.00;100971.03;5004100;28;20477;-75
2023/02/19 05:23:20;;;;;;;20.75;2.88;;;;;;;0.91;100.00;100986.13;5019059;28;20095;-75
2023/02/19 05:25:45;;;;;;;7.78;2.75;;;;;;;0.87;100.00;100985.50;4999211;28;20034;-75
2023/02/19 05:28:16;;;;;;;10.70;2.20;;;;;;;0.91;100.00;100986.97;4997843;28;20536;-75
2023/02/19 05:31:05;;;;;;;15.40;1.90;;;;;;;0.89;100.00;100994.13;5004607;28;20518;-78
2023/02/19 05:33:31;;;;;;;31.15;2.70;;;;;;;0.85;100.00;100997.88;5028351;28;20071;-77
2023/02/19 05:35:56;;;;;;;6.35;1.77;;;;;;;0.84;100.00;101002.31;4994877;28;20020;-78
2023/02/19 05:38:22;;;;;;;12.27;2.83;;;;;;;0.79;100.00;101006.13;4998658;28;20121;-76
2023/02/19 05:40:48;;;;;;;;;;;;;;;0.74;100.00;101016.09;5032413;28;20502;-77
2023/02/19 05:43:14;;;;;;;10.45;3.97;;;;;;;0.78;100.00;101013.19;5013477;28;19915;-76
2023/02/19 05:45:40;;;;;;;21.48;3.95;;;;;;;0.67;100.00;101010.34;5030921;28;20034;-75
2023/02/19 05:48:06;;;;;;;27.00;3.03;;;;;;;0.73;100.00;101020.50;5011096;28;20041;-76
2023/02/19 05:50:32;;;;;;;;;;;;;;;0.75;100.00;101023.88;5015530;28;20816;-78
2023/02/19 05:53:09;;;;;;;26.02;3.70;;;;;;;0.68;100.00;101021.69;5005820;28;19959;-75
2023/02/19 05:55:35;;;;;;;13.27;2.03;;;;;;;0.66;100.00;101013.94;5039651;28;20045;-77
2023/02/19 05:58:01;;;;;;;9.73;2.20;;;;;;;0.69;100.00;101033.91;5014991;28;20272;-76
2023/02/19 06:00:27;;;;;;;13.77;3.60;;;;;;;0.67;100.00;101041.03;5012586;28;20072;-78
2023/02/19 06:02:53;;;;;;;16.13;3.65;;;;;;;0.74;100.00;101053.72;4983099;28;20546;-76
2023/02/19 06:05:18;;;;;;;21.08;2.83;;;;;;;0.74;100.00;101063.41;4998983;28;20038;-75
2023/02/19 06:07:44;;;;;;;14.60;3.42;;;;;;;0.69;100.00;101061.03;5030642;28;20025;-76
2023/02/19 06:10:11;;;;;;;14.07;3.45;;;;;;;0.65;100.00;101069.19;5031527;28;20029;-76
2023/02/19 06:12:37;;;;;;;9.68;2.55;;;;;;;0.62;100.00;101067.59;5030974;28;20029;-78
2023/02/19 06:15:03;;;;;;;;;;;;;;;0.62;100.00;101080.72;5031785;28;20041;-76
2023/02/19 06:17:29;;;;;;;15.23;3.50;;;;;;;0.73;100.00;101088.84;4997615;28;19920;-76
2023/02/19 06:19:54;;;;;;;17.88;6.05;;;;;;;0.76;100.00;101093.91;4999230;28;20015;-76
2023/02/19 06:22:20;;;;;;;13.77;3.47;;;;;;;0.73;100.00;101096.72;4982021;28;20506;-76
2023/02/19 06:24:46;;;;;;;9.27;2.35;;;;;;;0.71;100.00;101090.69;5027675;28;20140;-75
2023/02/19 06:27:11;;;;;;;19.00;4.78;;;;;;;0.82;100.00;101097.97;5015913;28;20056;-78
2023/02/19 06:29:37;;;;;;;13.38;2.65;;;;;;;0.74;100.00;101093.13;5015656;28;20120;-76
2023/02/19 06:32:04;;;;;;;16.35;2.42;;;;;;;0.87;100.00;101095.91;5016550;28;20466;-76
2023/02/19 06:34:30;;;;;;;8.20;2.30;;;;;;;0.87;100.00;101097.66;5028340;28;20037;-75
2023/02/19 06:36:55;;;;;;;12.23;3.08;;;;;;;0.85;100.00;101108.28;5011807;28;20083;-76
2023/02/19 06:39:23;;;;;;;14.65;2.13;;;;;;;0.76;100.00;101098.31;5011693;28;20044;-76
2023/02/19 06:41:49;;;;;;;9.40;2.45;;;;;;;0.81;100.00;101107.63;5021309;23;20038;-83
2023/02/19 06:44:14;;;;;;;15.43;3.22;;;;;;;0.78;100.00;101105.16;5029159;28;20097;-84
2023/02/19 06:46:40;;;;;;;9.05;2.60;;;;;;;0.88;100.00;101100.22;5034791;28;20037;-83
2023/02/19 06:49:05;;;;;;;25.13;3.43;;;;;;;0.82;100.00;101104.06;5037035;28;20029;-84
2023/02/19 06:51:31;;;;;;;12.73;1.98;;;;;;;0.90;100.00;101121.16;5041417;28;20272;-84
2023/02/19 06:53:57;;;;;;;;;;;;;;;0.99;100.00;101131.97;4998410;28;20100;-86
2023/02/19 06:56:25;;;;;;;13.27;2.67;;;;;;;0.96;100.00;101123.41;4997005;28;19916;-83
2023/02/19 06:58:55;;;;;;;15.90;4.22;;;;;;;1.04;100.00;101129.06;4997488;28;20129;-84
2023/02/19 07:01:22;;;;;;;10.82;2.80;;;;;;;0.93;100.00;101134.94;5013269;28;20317;-83
2023/02/19 07:03:47;;;;;;;16.75;3.40;;;;;;;0.95;100.00;101146.22;4996728;28;20064;-84
2023/02/19 07:06:13;;;;;;;17.88;3.45;;;;;;;1.09;100.00;101147.19;4996975;28;20029;-84
2023/02/19 07:08:38;;;;;;;9.47;2.13;;;;;;;1.15;100.00;101150.31;4997439;28;20052;-83
2023/02/19 07:11:04;;;;;;;12.23;2.15;;;;;;;1.14;100.00;101148.59;5014452;28;20029;-84
2023/02/19 07:13:29;;;;;;;10.40;3.55;;;;;;;1.16;100.00;101154.63;5030677;28;20464;-85
2023/02/19 07:16:06;;;;;;;7.28;1.83;;;;;;;1.22;100.00;101145.53;5012712;28;20100;-84
2023/02/19 07:18:32;;;;;;;20.52;3.28;;;;;;;1.29;100.00;101154.75;5021078;28;20037;-86
2023/02/19 07:21:05;;;;;;;;;;;;;;;1.35;100.00;101157.00;4996974;28;20017;-85
2023/02/19 07:23:56;;;;;;;10.73;2.70;;;;;;;1.35;100.00;101151.72;4997216;28;19924;-87
2023/02/19 07:26:22;;;;;;;8.48;2.50;;;;;;;1.37;100.00;101149.84;4952261;29;20046;-85
2023/02/19 07:28:49;;;;;;;11.35;3.05;;;;;;;1.36;100.00;101147.31;4936005;29;20062;-86
2023/02/19 07:31:16;;;;;;;12.15;2.00;;;;;;;1.33;100.00;101145.72;4934903;29;20043;-85
2023/02/19 07:33:45;;;;;;;12.18;2.30;;;;;;;1.36;100.00;101149.94;4966878;28;20105;-85
2023/02/19 07:36:13;;;;;;;20.40;3.08;;;;;;;1.40;100.00;101160.19;4934929;29;20023;-85
2023/02/19 07:38:38;;;;;;;12.05;2.53;;;;;;;1.51;100.00;101163.97;4918537;29;20707;-85
2023/02/19 07:41:05;;;;;;;8.70;1.75;;;;;;;1.47;100.00;101158.03;4933925;28;20054;-89
2023/02/19 07:43:33;;;;;;;7.78;1.80;;;;;;;1.50;100.00;101173.66;4949542;28;20035;-85
2023/02/19 07:46:02;;;;;;;9.55;1.90;;;;;;;1.48;100.00;101165.00;4962289;28;20063;-84
2023/02/19 07:48:27;;;;;;;10.65;2.60;;;;;;;1.47;100.00;101169.44;4934007;29;20023;-85
2023/02/19 07:50:55;;;;;;;15.10;2.55;;;;;;;1.68;100.00;101188.28;4948818;28;20051;-85
2023/02/19 07:53:21;;;;;;;15.60;2.97;;;;;;;2.23;100.00;101199.81;4917128;29;20135;-84
2023/02/19 07:55:47;;;;;;;7.60;1.80;;;;;;;2.70;100.00;101211.72;4932164;29;20047;-86
2023/02/19 07:58:12;;;;;;;11.02;2.75;;;;;;;2.99;100.00;101198.38;4932712;29;20483;-86
2023/02/19 08:00:38;;;;;;;8.68;1.83;;;;;;;3.50;100.00;101202.88;4916667;29;20031;-84
2023/02/19 08:03:04;;;;;;;7.53;1.60;;;;;;;3.74;100.00;101182.69;4990620;28;20056;-85
2023/02/19 08:05:36;;;;;;;14.45;2.13;;;;;;;3.80;100.00;101166.41;5000081;28;20037;-85
2023/02/19 08:08:04;;;;;;;11.50;1.67;;;;;;;3.91;100.00;101151.59;4988440;28;20083;-86
2023/02/19 08:13:21;;;;;;;11.32;1.95;;;;;;;4.83;100.00;101098.06;5030220;28;20033;-85
2023/02/19 08:15:49;;;;;;;24.95;5.20;;;;;;;5.18;100.00;101072.50;5001472;28;20521;-87
2023/02/19 08:18:16;;;;;;;16.25;2.15;;;;;;;5.12;100.00;100991.75;5002049;28;20029;-86
2023/02/19 08:20:42;;;;;;;13.57;2.10;;;;;;;5.12;100.00;100951.22;5002388;28;20049;-87
2023/02/19 08:23:07;;;;;;;;;;;;;;;5.44;100.00;100898.34;5018329;28;20083;-85
2023/02/19 08:25:33;;;;;;;7.70;1.60;;;;;;;5.60;100.00;100839.66;4999948;28;19909;-85
2023/02/19 08:27:59;;;;;;;9.63;2.63;;;;;;;6.07;100.00;100769.41;5019912;28;20029;-85
2023/02/19 08:30:25;;;;;;;4.47;1.50;;;;;;;6.43;100.00;100702.66;4999731;28;20068;-84
2023/02/19 08:32:51;;;;;;;;;;;;;;;6.43;100.00;100609.84;4999765;28;20136;-86
2023/02/19 08:35:16;;;;;;;6.45;1.60;;;;;;;7.17;100.00;100567.56;5016079;28;20007;-87
2023/02/19 08:37:41;;;;;;;3.40;1.07;;;;;;;7.10;100.00;100380.66;4999357;28;20087;-86
2023/02/19 08:40:07;;;;;;;18.33;2.67;;;;;;;7.33;100.00;100268.69;5009073;28;20659;-85
2023/02/19 08:42:33;;;;;;;10.25;1.77;;;;;;;7.77;100.00;100139.31;5014343;28;20041;-85
2023/02/19 08:44:58;;;;;;;6.07;1.73;;;;;;;7.50;100.00;99994.25;5020351;28;20041;-85
2023/02/19 08:47:23;;;;;;;4.70;1.30;;;;;;;8.29;100.00;99908.75;4998656;28;20128;-84
2023/02/19 08:49:49;;;;;;;5.97;1.13;;;;;;;7.76;100.00;99658.53;5038279;28;20025;-85
2023/02/19 08:52:14;;;;;;;5.73;1.63;;;;;;;7.97;100.00;99640.16;5014442;28;20070;-84
2023/02/19 08:54:39;;;;;;;8.77;1.70;;;;;;;8.27;100.00;99661.66;4998151;28;20033;-85
2023/02/19 08:57:05;;;;;;;11.30;1.33;;;;;;;8.93;100.00;99565.44;5014814;28;20048;-84
2023/02/19 08:59:30;;;;;;;9.48;1.40;;;;;;;8.94;100.00;99370.09;4998484;28;20849;-85
2023/02/19 09:01:59;;;;;;;5.65;1.48;;;;;;;9.36;100.00;99272.66;5021985;28;20261;-86
2023/02/19 09:04:24;;;;;;;7.43;2.33;;;;;;;8.38;100.00;98964.50;5014902;28;20116;-83
2023/02/19 09:06:50;;;;;;;6.70;1.35;;;;;;;8.60;100.00;99090.31;5015762;28;20128;-86
2023/02/19 09:09:15;;;;;;;9.97;1.50;;;;;;;8.35;100.00;99177.59;5017874;28;20040;-86
2023/02/19 09:11:41;;;;;;;10.57;2.13;;;;;;;8.66;100.00;99104.69;5017013;28;20033;-85
2023/02/19 09:14:06;;;;;;;10.25;1.77;;;;;;;9.34;100.00;99200.09;5000617;28;20040;-88
2023/02/19 09:16:35;;;;;;;7.28;1.65;;;;;;;9.65;100.00;98878.16;5016315;28;20200;-86
2023/02/19 09:19:02;;;;;;;9.50;1.30;;;;;;;9.41;100.00;98748.19;5015822;28;20884;-87
2023/02/19 09:21:27;;;;;;;;;;;;;;;9.68;99.72;98687.75;4999130;28;20038;-86
2023/02/19 09:23:52;;;;;;;5.53;1.35;;;;;;;9.02;98.84;98532.31;4999074;28;19920;-84
2023/02/19 09:26:18;;;;;;;7.33;1.33;;;;;;;9.03;97.27;98479.91;5000587;28;20048;-85
2023/02/19 09:28:43;;;;;;;4.97;1.23;;;;;;;8.70;97.79;98578.38;5014896;28;20025;-84
2023/02/19 09:31:11;;;;;;;11.97;1.33;;;;;;;9.13;97.04;98709.25;5020564;28;20307;-84
2023/02/19 09:33:36;;;;;;;7.15;2.15;;;;;;;9.35;96.13;98743.69;4998074;28;20059;-86
2023/02/19 09:36:02;;;;;;;7.90;1.03;;;;;;;9.26;92.40;98282.44;5013871;28;20509;-86
2023/02/19 09:38:29;;;;;;;8.60;1.70;;;;;;;9.49;91.93;98375.09;5013987;28;20033;-83
2023/02/19 09:41:15;;;;;;;5.38;1.15;;;;;;;9.98;92.11;98599.31;5013564;28;20040;-84
2023/02/19 09:43:42;;;;;;;6.20;1.05;;;;;;;10.52;89.97;98560.69;5014504;28;20029;-87
2023/02/19 09:46:25;;;;;;;;;;;;;;;9.08;89.08;98201.47;5020704;28;20025;-84
2023/02/19 09:48:52;;;;;;;7.90;1.27;;;;;;;9.44;87.93;98263.88;5014295;28;20099;-87
2023/02/19 09:51:18;;;;;;;7.95;1.15;;;;;;;9.18;87.89;98258.72;5003630;28;20383;-85
2023/02/19 09:53:48;;;;;;;4.38;1.38;;;;;;;9.90;87.96;98518.56;5012442;28;20029;-86
2023/02/19 09:56:13;;;;;;;8.73;1.02;;;;;;;9.53;86.01;98248.44;4996942;28;20041;-86
2023/02/19 09:58:50;;;;;;;5.00;1.13;;;;;;;9.56;85.89;98309.28;5015206;28;20072;-88
2023/02/19 10:01:17;;;;;;;7.85;1.63;;;;;;;9.98;83.85;98213.63;5032428;28;20432;-87
2023/02/19 10:03:45;;;;;;;9.35;1.48;;;;;;;9.08;81.74;97759.66;4999947;28;20036;-87
2023/02/19 10:06:25;;;;;;;5.57;0.88;;;;;;;9.13;82.56;98050.91;5002947;28;20037;-88
2023/02/19 10:08:55;;;;;;;6.50;1.05;;;;;;;9.05;81.33;97916.28;4999738;28;20103;-87
2023/02/19 10:11:22;;;;;;;7.93;1.38;;;;;;;9.30;81.73;98163.81;4997957;28;20025;-86
2023/02/19 10:14:34;;;;;;;8.30;1.30;;;;;;;9.00;80.18;97892.19;4997918;28;20030;-87
2023/02/19 10:17:02;;;;;;;12.48;1.92;;;;;;;9.44;79.72;98039.38;5004434;28;20041;-86
2023/02/19 10:19:28;;;;;;;10.10;1.13;;;;;;;9.48;79.41;98068.00;5001745;28;20041;-87
2023/02/19 10:21:55;;;;;;;4.33;1.60;;;;;;;9.80;77.75;97990.56;5004788;28;20056;-87
2023/02/19 10:24:25;;;;;;;7.97;0.98;;;;;;;8.88;75.99;97519.66;5013489;28;20025;-86
2023/02/19 10:26:51;;;;;;;7.88;1.08;;;;;;;8.67;76.46;97584.84;5023462;28;20045;-87
2023/02/19 10:29:18;;;;;;;4.35;0.80;;;;;;;8.67;76.41;97720.47;5002607;28;20034;-86
2023/02/19 10:31:43;;;;;;;9.77;1.35;;;;;;;9.44;77.06;98149.34;5012855;28;20029;-87
2023/02/19 10:34:18;;;;;;;3.53;0.80;;;;;;;9.22;76.67;98005.16;5014120;28;20044;-85
2023/02/19 10:36:47;;;;;;;5.40;1.05;;;;;;;9.81;76.22;98295.16;5015138;28;20044;-86
2023/02/19 10:39:22;;;;;;;8.18;1.05;;;;;;;9.97;74.79;98208.50;5013206;28;20080;-88
2023/02/19 10:41:49;;;;;;;11.63;1.00;;;;;;;10.40;74.01;98309.84;4996893;28;20045;-87
2023/02/19 10:44:20;;;;;;;7.28;0.85;;;;;;;9.19;71.91;97574.38;4999254;28;20068;-86
2023/02/19 10:46:49;;;;;;;3.25;0.90;;;;;;;10.00;72.86;98106.78;4997917;28;20857;-87
2023/02/19 10:49:17;;;;;;;5.10;1.40;;;;;;;10.12;71.75;97985.84;5019536;28;20401;-87
2023/02/19 10:51:42;;;;;;;6.78;0.82;;;;;;;10.32;71.11;98008.75;4998355;28;20540;-86
2023/02/19 10:54:16;;;;;;;5.33;1.23;;;;;;;11.07;71.31;98317.09;5017329;28;20034;-86
2023/02/19 10:56:41;;;;;;;2.75;0.80;;;;;;;10.88;70.44;98159.59;4998917;28;20272;-86
2023/02/19 10:59:13;;;;;;;7.87;1.73;;;;;;;10.88;69.72;98074.19;4997672;28;20709;-87
2023/02/19 11:01:52;;;;;;;11.80;1.13;;;;;;;10.98;68.79;98006.91;4996741;28;20033;-86
2023/02/19 11:04:18;;;;;;;5.53;1.05;;;;;;;10.60;68.10;97791.22;4997200;28;20037;-85
2023/02/19 11:06:45;;;;;;;1.97;1.00;;;;;;;10.26;67.95;97591.84;4997964;28;20025;-85
2023/02/19 11:09:36;;;;;;;5.13;1.10;;;;;;;11.01;66.83;97806.22;4998023;28;20345;-85
2023/02/19 11:12:03;;;;;;;2.95;0.80;;;;;;;10.37;65.80;97499.53;4997332;28;20048;-87
2023/02/19 11:14:31;;;;;;;4.95;1.25;;;;;;;10.63;65.90;97684.03;5020726;28;20028;-83
2023/02/19 11:16:58;;;;;;;5.93;1.00;;;;;;;10.15;65.21;97400.75;4988818;28;20065;-86
2023/02/19 11:19:30;;;;;;;13.57;1.77;;;;;;;11.03;66.59;98081.78;5016526;28;20453;-86
2023/02/19 11:21:57;;;;;;;6.47;1.38;;;;;;;11.81;65.45;98197.41;4995727;28;20730;-87
2023/02/19 11:24:39;;;;;;;6.47;1.33;;;;;;;11.56;63.15;97687.25;5012452;28;20045;-85
2023/02/19 11:27:15;;;;;;;4.68;0.90;;;;;;;11.69;63.00;97745.72;5008541;28;20105;-87
2023/02/19 11:29:40;;;;;;;;;;;;;;;11.26;62.20;97452.56;4996252;28;20844;-88
2023/02/19 11:32:28;;;;;;;1.33;0.77;;;;;;;12.25;62.75;98006.06;4995741;28;19909;-87
2023/02/19 11:35:14;;;;;;;4.35;0.70;;;;;;;11.88;60.98;97523.66;5019604;28;20030;-91
2023/02/19 11:38:00;;;;;;;5.25;1.58;;;;;;;11.22;60.45;97177.25;5012595;28;20102;-87
2023/02/19 11:40:38;;;;;;;7.15;0.80;;;;;;;11.26;60.26;97335.91;4995745;28;20036;-86
2023/02/19 11:43:16;;;;;;;2.25;0.90;;;;;;;11.12;59.83;97206.50;4995349;28;20025;-85
2023/02/19 11:45:55;;;;;;;3.10;0.70;;;;;;;10.32;60.43;97163.47;5014401;28;20041;-90
2023/02/19 11:48:40;;;;;;;2.55;1.10;;;;;;;11.02;59.97;97455.47;4997417;28;20056;-87
2023/02/19 11:51:26;;;;;;;3.27;0.80;;;;;;;10.68;58.54;97022.53;4998485;28;20906;-88
2023/02/19 11:54:17;;;;;;;1.77;0.70;;;;;;;11.24;58.45;97319.31;4996138;28;20041;-85
2023/02/19 11:56:46;;;;;;;5.93;1.25;;;;;;;11.41;57.63;97269.28;4995626;28;20461;-87
2023/02/19 11:59:25;;;;;;;2.45;0.65;;;;;;;11.09;57.46;97121.59;5012057;28;20041;-86
2023/02/19 12:02:21;;;;;;;3.50;0.90;;;;;;;11.60;58.02;97528.09;4995541;28;20033;-87
2023/02/19 12:05:25;;;;;;;5.60;1.27;;;;;;;11.86;58.74;97696.81;4997651;28;20071;-88